Orange Park, Florida
Current Conditions -  °F | °C
As of 8:53 PM on Thursday 20 Nov 2014 (Local Time) from KNIP Reporting Station
Broken Clouds Broken Clouds  
Wind Chill: 50°   Ceiling: 25000
Heat Index: 50°   Visibility: 10mi
Dew Point: 35°   Wind: 7mph
Humidity: 57%   Direction: 240°WSW
Pressure: 30.28"   Gusts: NA
Location:  30.17°N, 81.7°W
Report Text: KNIP 210153Z 24006KT 10SM BKN250 10/02 A3028 RMK AO2 SLP248 T01000017
Loading
Personal Weather Stations






























Interactive Weather Map New forecast layout! Learn more

10-Day Weather Forecast

Advertisements
Track Severe Weather on mobile